Time;durP1;ratioP1;P1;durP2;ratioP2;P2;SDS_P1;SDS_P2;PMS_P1;PMS_P2;Temp;Humidity;BMP_temperature;BMP_pressure;BME280_temperature;BME280_humidity;BME280_pressure;Samples;Min_cycle;Max_cycle;Signal;HPM_P1;HPM_P2
2021/07/20 00:00:34;;;;;;;28.02;19.77;;;;;;;19.05;69.84;99606.22;5113721;28;20206;-73
2021/07/20 00:03:02;;;;;;;22.20;18.95;;;;;;;19.06;69.90;99605.19;5113070;28;20233;-72
2021/07/20 00:05:31;;;;;;;24.70;18.80;;;;;;;19.19;69.27;99610.38;5113857;28;20196;-73
2021/07/20 00:07:59;;;;;;;26.65;19.25;;;;;;;19.03;70.15;99606.34;5113415;28;20256;-73
2021/07/20 00:10:28;;;;;;;22.77;19.47;;;;;;;19.05;70.18;99607.06;5113915;28;20212;-73
2021/07/20 00:12:56;;;;;;;26.00;19.17;;;;;;;18.99;70.34;99614.97;5113285;28;20790;-73
2021/07/20 00:15:24;;;;;;;22.65;18.48;;;;;;;18.98;70.49;99611.38;5113780;28;20197;-73
2021/07/20 00:17:54;;;;;;;26.00;18.98;;;;;;;18.73;71.55;99613.63;5113712;28;20309;-73
2021/07/20 00:20:22;;;;;;;25.30;18.83;;;;;;;18.36;73.40;99613.41;5113741;28;20679;-74
2021/07/20 00:22:49;;;;;;;24.90;18.92;;;;;;;18.47;73.23;99606.94;5113717;28;20192;-73
2021/07/20 00:25:17;;;;;;;24.02;18.63;;;;;;;18.39;72.99;99612.25;5113525;28;20196;-73
2021/07/20 00:27:44;;;;;;;28.55;18.45;;;;;;;18.45;73.19;99606.22;5113572;28;20277;-72
2021/07/20 00:30:12;;;;;;;26.00;19.48;;;;;;;18.42;73.19;99610.09;5113025;28;20211;-74
2021/07/20 00:32:40;;;;;;;21.30;18.05;;;;;;;18.37;73.97;99612.38;5113422;28;20694;-73
2021/07/20 00:35:11;;;;;;;25.00;19.45;;;;;;;18.33;73.79;99613.66;5113642;28;20630;-72
2021/07/20 00:37:39;;;;;;;26.73;20.67;;;;;;;18.42;73.80;99611.97;5113159;28;20222;-72
2021/07/20 00:40:08;;;;;;;23.42;19.00;;;;;;;18.16;74.45;99609.75;5113312;28;20771;-73
2021/07/20 00:42:34;;;;;;;27.88;19.95;;;;;;;18.19;74.54;99608.59;5113645;28;20265;-73
2021/07/20 00:45:01;;;;;;;23.88;19.52;;;;;;;18.31;74.66;99610.19;5112989;28;20226;-73
2021/07/20 00:47:28;;;;;;;27.15;18.95;;;;;;;18.43;73.31;99611.84;5113302;28;20202;-72
2021/07/20 00:49:55;;;;;;;25.95;18.85;;;;;;;18.38;72.98;99608.66;5113139;28;20273;-73
2021/07/20 00:52:23;;;;;;;24.88;18.83;;;;;;;18.32;73.99;99607.34;5113586;28;20186;-73
2021/07/20 00:54:49;;;;;;;25.20;19.13;;;;;;;18.39;73.48;99604.06;5113471;28;20692;-73
2021/07/20 00:57:16;;;;;;;21.17;17.98;;;;;;;18.32;73.89;99601.03;5113245;28;20206;-73
2021/07/20 00:59:44;;;;;;;25.63;19.63;;;;;;;18.30;74.35;99605.78;5112884;28;20671;-71
2021/07/20 01:02:10;;;;;;;25.17;19.65;;;;;;;18.43;73.79;99600.03;5112806;28;20229;-72
2021/07/20 01:04:37;;;;;;;24.02;18.90;;;;;;;18.43;74.34;99605.50;5113538;28;20186;-72
2021/07/20 01:07:04;;;;;;;23.52;18.27;;;;;;;18.22;74.65;99598.25;5117465;28;20273;-73
2021/07/20 01:09:33;;;;;;;24.10;18.48;;;;;;;18.14;75.68;99600.84;5117051;28;20194;-72
2021/07/20 01:12:01;;;;;;;24.88;18.33;;;;;;;18.25;74.79;99602.59;5117350;28;20181;-72
2021/07/20 01:14:28;;;;;;;29.58;19.17;;;;;;;17.90;76.22;99603.88;5117240;28;20680;-73
2021/07/20 01:16:57;;;;;;;23.58;19.42;;;;;;;17.84;76.60;99604.41;5116875;28;20301;-73
2021/07/20 01:19:30;;;;;;;26.27;19.63;;;;;;;17.87;76.94;99609.59;5117032;28;20209;-73
2021/07/20 01:22:01;;;;;;;29.70;19.95;;;;;;;17.91;77.13;99611.06;5116855;28;20185;-73
2021/07/20 01:24:29;;;;;;;25.02;18.95;;;;;;;17.82;77.49;99599.13;5116996;28;20201;-73
2021/07/20 01:26:56;;;;;;;27.45;19.70;;;;;;;17.94;76.99;99605.34;5116808;28;20200;-74
2021/07/20 01:29:24;;;;;;;24.88;18.92;;;;;;;17.86;77.14;99607.88;5116288;28;20192;-74
2021/07/20 01:31:52;;;;;;;21.38;18.25;;;;;;;17.91;76.51;99605.63;5116681;28;20212;-74
2021/07/20 01:34:21;;;;;;;23.88;19.35;;;;;;;17.71;78.30;99602.75;5116501;28;20182;-73
2021/07/20 01:36:49;;;;;;;25.58;19.35;;;;;;;17.73;78.09;99608.06;5116321;28;20190;-73
2021/07/20 01:39:17;;;;;;;24.27;17.98;;;;;;;17.62;79.06;99606.28;5116217;28;20312;-72
2021/07/20 01:41:46;;;;;;;26.85;19.00;;;;;;;17.85;78.43;99595.25;5115993;28;20189;-73
2021/07/20 01:44:14;;;;;;;24.75;19.08;;;;;;;17.78;77.71;99604.94;5115875;28;20205;-73
2021/07/20 01:46:42;;;;;;;23.83;19.20;;;;;;;17.76;77.72;99604.22;5116206;28;20185;-73
2021/07/20 01:49:13;;;;;;;23.80;17.77;;;;;;;17.56;78.69;99595.91;5116328;28;20553;-73
2021/07/20 01:51:41;;;;;;;27.85;19.33;;;;;;;17.60;79.33;99602.81;5116793;28;20188;-73
2021/07/20 01:54:08;;;;;;;29.38;19.77;;;;;;;17.69;78.17;99602.00;5116255;28;20240;-73
2021/07/20 01:56:35;;;;;;;29.05;19.77;;;;;;;17.72;78.92;99600.88;5115952;28;20204;-73
2021/07/20 01:59:04;;;;;;;25.13;18.65;;;;;;;17.60;78.91;99601.97;5116084;28;20675;-73
2021/07/20 02:01:36;;;;;;;22.73;17.55;;;;;;;17.58;79.62;99598.50;5115719;28;20205;-73
2021/07/20 02:04:21;;;;;;;26.00;19.20;;;;;;;17.70;78.64;99602.88;5115692;28;20229;-73
2021/07/20 02:09:38;;;;;;;25.67;19.33;;;;;;;17.78;78.13;99605.78;5115824;28;20188;-73
2021/07/20 02:12:14;;;;;;;25.50;18.88;;;;;;;17.68;79.99;99604.88;5116294;28;20629;-73
2021/07/20 02:14:46;;;;;;;23.60;18.55;;;;;;;17.76;79.31;99609.66;5116089;28;20190;-72
2021/07/20 02:17:14;;;;;;;24.17;18.02;;;;;;;17.75;78.46;99607.91;5115253;28;20193;-72
2021/07/20 02:19:45;;;;;;;25.10;18.90;;;;;;;17.64;78.52;99603.44;5115381;28;20297;-74
2021/07/20 02:22:16;;;;;;;25.08;18.65;;;;;;;17.43;80.20;99606.13;5115801;28;20550;-72
2021/07/20 02:24:43;;;;;;;25.80;17.60;;;;;;;17.44;79.89;99602.44;5115908;28;20196;-72
2021/07/20 02:27:11;;;;;;;25.60;19.58;;;;;;;17.38;80.09;99598.38;5115317;28;20277;-73
2021/07/20 02:29:39;;;;;;;26.05;19.00;;;;;;;17.40;80.36;99598.25;5115752;28;20194;-72
2021/07/20 02:32:10;;;;;;;22.30;17.48;;;;;;;17.32;80.32;99598.03;5115347;28;20189;-72
2021/07/20 02:34:39;;;;;;;23.63;18.50;;;;;;;17.42;80.28;99593.53;5115508;28;20269;-73
2021/07/20 02:37:06;;;;;;;25.33;20.30;;;;;;;17.46;79.83;99593.16;5115096;28;20184;-73
2021/07/20 02:39:35;;;;;;;26.17;18.55;;;;;;;17.43;80.55;99597.97;5115340;28;20208;-73
2021/07/20 02:42:02;;;;;;;27.40;18.80;;;;;;;17.38;80.96;99592.94;5114937;28;20197;-73
2021/07/20 02:44:30;;;;;;;26.08;19.20;;;;;;;17.25;81.09;99598.59;5115400;28;20611;-73
2021/07/20 02:46:58;;;;;;;23.65;17.60;;;;;;;17.14;81.67;99604.09;5115324;28;20722;-73
2021/07/20 02:49:28;;;;;;;24.92;18.35;;;;;;;17.05;82.11;99604.88;5115003;28;20210;-72
2021/07/20 02:51:55;;;;;;;24.50;18.95;;;;;;;17.17;81.30;99594.78;5115025;28;20633;-72
2021/07/20 02:54:24;;;;;;;22.80;17.83;;;;;;;16.98;82.57;99600.91;5115200;28;20526;-73
2021/07/20 02:56:52;;;;;;;26.00;20.48;;;;;;;16.82;83.55;99594.09;5115091;28;20605;-72
2021/07/20 02:59:21;;;;;;;26.60;19.05;;;;;;;16.73;84.14;99586.63;5115039;28;20741;-72
2021/07/20 03:01:49;;;;;;;22.50;17.95;;;;;;;17.00;83.01;99590.78;5114762;28;20640;-73
2021/07/20 03:04:16;;;;;;;23.20;18.75;;;;;;;17.05;81.96;99588.56;5114788;28;20227;-74
2021/07/20 03:06:58;;;;;;;25.88;18.42;;;;;;;17.22;81.57;99592.53;5114936;28;20227;-72
2021/07/20 03:09:25;;;;;;;30.33;19.10;;;;;;;17.23;80.88;99583.38;5114537;28;20180;-73
2021/07/20 03:11:57;;;;;;;23.08;18.17;;;;;;;17.06;81.56;99587.53;5114931;28;20562;-73
2021/07/20 03:14:26;;;;;;;25.25;18.05;;;;;;;17.06;82.11;99592.97;5114755;28;20274;-73
2021/07/20 03:16:54;;;;;;;27.40;18.75;;;;;;;17.17;81.93;99592.06;5114299;28;20218;-72
2021/07/20 03:19:25;;;;;;;23.15;17.65;;;;;;;17.23;81.26;99595.13;5114294;28;20294;-73
2021/07/20 03:21:55;;;;;;;24.65;18.10;;;;;;;17.22;81.25;99593.41;5114475;28;20631;-73
2021/07/20 03:24:23;;;;;;;24.90;17.95;;;;;;;17.30;80.70;99588.16;5114466;28;20203;-73
2021/07/20 03:26:51;;;;;;;26.10;17.98;;;;;;;17.21;80.59;99591.69;5114229;28;20613;-72
2021/07/20 03:29:21;;;;;;;21.23;17.65;;;;;;;17.18;80.18;99594.63;5114062;28;20227;-72
2021/07/20 03:31:49;;;;;;;24.92;19.42;;;;;;;17.22;80.14;99598.84;5114099;28;20189;-73
2021/07/20 03:34:17;;;;;;;23.00;18.52;;;;;;;17.00;80.85;99591.63;5114060;28;20223;-73
2021/07/20 03:36:44;;;;;;;23.65;17.17;;;;;;;16.91;81.59;99589.69;5113873;28;20206;-72
2021/07/20 03:39:12;;;;;;;23.90;17.70;;;;;;;16.82;82.44;99588.66;5113574;28;20230;-73
2021/07/20 03:41:41;;;;;;;23.90;18.55;;;;;;;16.79;83.22;99585.28;5113530;28;20191;-73
2021/07/20 03:44:10;;;;;;;25.80;18.13;;;;;;;16.91;83.30;99586.13;5114028;28;20195;-72
2021/07/20 03:46:37;;;;;;;24.58;18.50;;;;;;;17.06;82.43;99585.69;5114296;28;20569;-73
2021/07/20 03:49:04;;;;;;;23.73;17.15;;;;;;;17.10;81.33;99586.28;5113662;28;20199;-73
2021/07/20 03:51:31;;;;;;;28.60;20.35;;;;;;;16.76;82.64;99586.41;5113795;28;20199;-73
2021/07/20 03:54:00;;;;;;;26.67;19.95;;;;;;;16.63;83.69;99585.69;5114340;28;20276;-72
2021/07/20 03:56:28;;;;;;;26.80;18.77;;;;;;;16.60;83.46;99592.25;5113894;28;20592;-73
2021/07/20 03:58:58;;;;;;;26.00;18.75;;;;;;;16.60;84.16;99597.69;5113888;28;20203;-74
2021/07/20 04:01:28;;;;;;;26.85;19.92;;;;;;;16.43;85.07;99595.50;5113759;28;20241;-73
2021/07/20 04:03:57;;;;;;;29.45;18.75;;;;;;;16.66;84.28;99597.19;5113698;28;20276;-73
2021/07/20 04:06:25;;;;;;;22.80;18.50;;;;;;;16.79;83.93;99601.59;5113968;28;20594;-74
2021/07/20 04:08:53;;;;;;;27.92;19.27;;;;;;;16.70;82.83;99605.94;5113330;28;20609;-73
2021/07/20 04:11:20;;;;;;;24.63;17.45;;;;;;;16.72;83.22;99603.97;5114040;28;20616;-73
2021/07/20 04:13:49;;;;;;;25.80;18.85;;;;;;;16.70;83.83;99616.81;5113905;28;20636;-72
2021/07/20 04:16:17;;;;;;;27.58;18.63;;;;;;;16.66;83.33;99612.63;5113102;28;20187;-73
2021/07/20 04:18:45;;;;;;;26.60;18.95;;;;;;;16.58;83.82;99609.69;5113614;28;20210;-73
2021/07/20 04:21:12;;;;;;;25.60;17.20;;;;;;;16.58;83.85;99610.56;5113275;28;20223;-73
2021/07/20 04:23:39;;;;;;;28.00;19.75;;;;;;;16.58;83.67;99620.56;5113713;28;20602;-73
2021/07/20 04:26:08;;;;;;;22.30;16.98;;;;;;;16.57;83.78;99613.38;5113187;28;20183;-74
2021/07/20 04:28:36;;;;;;;24.45;17.90;;;;;;;16.37;85.20;99617.75;5113165;28;20278;-72
2021/07/20 04:31:05;;;;;;;34.47;19.58;;;;;;;16.42;84.80;99621.81;5112940;28;20660;-72
2021/07/20 04:33:34;;;;;;;26.50;19.10;;;;;;;16.53;84.49;99620.06;5113300;28;20191;-74
2021/07/20 04:36:01;;;;;;;26.30;18.67;;;;;;;16.53;84.31;99623.66;5114211;28;20193;-72
2021/07/20 04:38:32;;;;;;;29.55;19.38;;;;;;;16.59;84.26;99616.84;5114252;28;20203;-74
2021/07/20 04:40:59;;;;;;;27.27;19.20;;;;;;;16.55;83.88;99621.69;5117850;28;20235;-73
2021/07/20 04:43:27;;;;;;;27.52;19.33;;;;;;;16.50;84.72;99620.31;5117364;28;20685;-73
2021/07/20 04:45:56;;;;;;;27.83;19.50;;;;;;;16.57;84.84;99626.97;5117512;28;20628;-72
2021/07/20 04:48:24;;;;;;;26.88;18.33;;;;;;;16.59;84.49;99619.56;5117430;28;20584;-73
2021/07/20 04:50:52;;;;;;;27.98;19.58;;;;;;;16.49;84.27;99622.19;5117314;28;20710;-73
2021/07/20 04:53:20;;;;;;;28.38;19.10;;;;;;;16.50;84.74;99628.47;5116923;28;20219;-73
2021/07/20 04:55:50;;;;;;;25.63;18.55;;;;;;;16.40;85.59;99631.94;5117002;28;20239;-72
2021/07/20 04:58:18;;;;;;;24.00;18.50;;;;;;;16.57;84.80;99629.69;5117456;28;20627;-72
2021/07/20 05:00:48;;;;;;;32.72;20.73;;;;;;;16.73;83.91;99635.56;5117990;27;20716;-73
2021/07/20 05:03:15;;;;;;;28.05;19.27;;;;;;;16.79;83.60;99647.81;5122605;27;20230;-73
2021/07/20 05:05:44;;;;;;;25.38;18.23;;;;;;;16.88;82.54;99628.91;5138197;27;20190;-73
2021/07/20 05:08:15;;;;;;;26.77;20.60;;;;;;;17.07;82.10;99633.66;5124787;27;20188;-74
2021/07/20 05:10:45;;;;;;;32.78;20.55;;;;;;;17.49;79.55;99641.00;5117687;28;20191;-73
2021/07/20 05:13:16;;;;;;;27.90;19.15;;;;;;;17.69;77.96;99634.69;5117349;28;20693;-72
2021/07/20 05:15:46;;;;;;;24.83;18.15;;;;;;;17.88;76.96;99638.56;5116804;28;20595;-73
2021/07/20 05:18:13;;;;;;;23.50;17.48;;;;;;;17.82;77.02;99639.97;5116592;28;20199;-74
2021/07/20 05:20:41;;;;;;;26.15;18.08;;;;;;;17.81;77.06;99642.78;5132713;27;20573;-74
2021/07/20 05:23:13;;;;;;;23.67;18.00;;;;;;;17.56;77.97;99638.63;5137724;27;20355;-72
2021/07/20 05:25:41;;;;;;;25.52;17.83;;;;;;;17.55;78.22;99645.94;5123572;27;20621;-75
2021/07/20 05:28:10;;;;;;;25.55;18.25;;;;;;;17.62;78.30;99649.84;5116409;28;20228;-73
2021/07/20 05:30:38;;;;;;;23.00;18.08;;;;;;;17.72;77.06;99642.59;5116765;28;20268;-73
2021/07/20 05:33:04;;;;;;;24.70;17.85;;;;;;;17.73;77.06;99640.75;5106229;28;20228;-74
2021/07/20 05:35:31;;;;;;;21.58;16.27;;;;;;;17.83;76.70;99647.13;5109421;28;20199;-74
2021/07/20 05:37:58;;;;;;;20.83;16.65;;;;;;;17.84;76.38;99656.16;5115317;28;20195;-73
2021/07/20 05:40:26;;;;;;;23.75;17.65;;;;;;;17.70;76.78;99650.03;5114614;28;20220;-72
2021/07/20 05:42:55;;;;;;;23.88;16.65;;;;;;;17.87;76.08;99643.16;5115248;28;20628;-73
2021/07/20 05:45:22;;;;;;;24.70;17.65;;;;;;;17.96;75.83;99652.38;5116804;28;20192;-75
2021/07/20 05:47:51;;;;;;;23.13;17.40;;;;;;;17.96;76.05;99652.38;5116673;28;20200;-73
2021/07/20 05:50:18;;;;;;;28.77;18.75;;;;;;;18.25;74.67;99651.66;5115657;28;20280;-74
2021/07/20 05:52:47;;;;;;;25.38;18.02;;;;;;;18.17;74.91;99659.63;5116085;28;20209;-73
2021/07/20 05:55:15;;;;;;;24.95;16.42;;;;;;;18.43;73.79;99662.75;5116195;28;20189;-73
2021/07/20 05:57:46;;;;;;;25.33;18.35;;;;;;;18.54;72.93;99668.09;5105083;28;20257;-74
2021/07/20 06:00:17;;;;;;;22.33;17.58;;;;;;;18.57;73.11;99672.44;5115403;28;20215;-74
2021/07/20 06:02:45;;;;;;;25.58;18.58;;;;;;;18.81;71.97;99672.94;5115914;28;20234;-73
2021/07/20 06:05:15;;;;;;;28.77;17.83;;;;;;;19.04;70.88;99675.41;5115718;28;20186;-74
2021/07/20 06:07:44;;;;;;;24.92;17.73;;;;;;;19.16;70.10;99675.16;5116013;28;20202;-74
2021/07/20 06:10:14;;;;;;;22.85;17.90;;;;;;;19.34;69.42;99672.59;5115976;28;20188;-74
2021/07/20 06:12:44;;;;;;;25.58;18.40;;;;;;;19.11;70.11;99672.00;5116531;28;20652;-73
2021/07/20 06:15:11;;;;;;;22.10;16.23;;;;;;;19.07;70.48;99676.00;5115554;28;20182;-74
2021/07/20 06:17:38;;;;;;;25.65;18.10;;;;;;;19.38;69.09;99668.56;5115710;28;20229;-72
2021/07/20 06:20:09;;;;;;;27.13;19.15;;;;;;;19.25;70.13;99672.59;5115688;28;20747;-75
2021/07/20 06:22:38;;;;;;;25.05;16.55;;;;;;;19.66;67.99;99676.88;5115520;28;20217;-74
2021/07/20 06:25:07;;;;;;;25.92;18.15;;;;;;;19.72;67.74;99675.47;5115150;28;20283;-74
2021/07/20 06:27:36;;;;;;;22.45;16.17;;;;;;;19.68;67.45;99680.31;5115778;28;20641;-74
2021/07/20 06:30:06;;;;;;;23.75;17.75;;;;;;;19.94;66.74;99677.88;5115386;28;20184;-74
2021/07/20 06:32:33;;;;;;;19.30;15.90;;;;;;;20.09;66.01;99681.00;5109627;28;20617;-74
2021/07/20 06:35:00;;;;;;;22.93;16.70;;;;;;;19.93;66.31;99680.75;5115447;28;20263;-74
2021/07/20 06:37:27;;;;;;;19.97;16.57;;;;;;;19.99;66.40;99685.63;5115440;28;20440;-74
2021/07/20 06:39:54;;;;;;;23.07;15.63;;;;;;;20.06;66.40;99686.75;5115378;28;20516;-74
2021/07/20 06:42:21;;;;;;;24.90;18.03;;;;;;;20.32;65.21;99695.16;5115384;28;20480;-75
2021/07/20 06:44:48;;;;;;;22.20;15.90;;;;;;;20.28;65.10;99691.00;5114805;28;20899;-74
2021/07/20 06:47:17;;;;;;;21.20;15.80;;;;;;;20.42;64.19;99690.53;5112605;28;20430;-74
2021/07/20 06:49:47;;;;;;;18.87;15.03;;;;;;;20.71;62.92;99689.53;5113025;28;20448;-73
2021/07/20 06:52:15;;;;;;;22.07;15.50;;;;;;;20.81;62.09;99690.38;5115091;28;20438;-73
2021/07/20 06:54:42;;;;;;;20.63;15.47;;;;;;;20.76;61.91;99686.38;5109027;28;20488;-73
2021/07/20 06:57:12;;;;;;;21.50;15.43;;;;;;;20.84;61.71;99686.44;5114557;28;20760;-74
2021/07/20 06:59:40;;;;;;;18.20;13.77;;;;;;;21.03;60.94;99688.22;5114166;28;20475;-72
2021/07/20 07:02:08;;;;;;;19.93;15.17;;;;;;;21.24;59.90;99693.41;5114040;28;20565;-74
2021/07/20 07:04:43;;;;;;;18.77;14.00;;;;;;;21.18;59.58;99685.81;5114546;28;20469;-74
2021/07/20 07:07:10;;;;;;;20.13;15.30;;;;;;;21.23;59.51;99681.59;5114192;28;20460;-73
2021/07/20 07:09:37;;;;;;;20.10;15.57;;;;;;;21.43;58.88;99685.03;5114423;28;20436;-74
2021/07/20 07:12:05;;;;;;;16.50;12.83;;;;;;;21.15;59.32;99695.19;5114364;28;20517;-74
2021/07/20 07:14:33;;;;;;;19.60;13.90;;;;;;;21.24;59.47;99685.19;5113528;28;20478;-75
2021/07/20 07:17:03;;;;;;;20.17;15.03;;;;;;;21.37;58.52;99680.19;5114051;28;20433;-73
2021/07/20 07:19:30;;;;;;;24.17;14.43;;;;;;;21.13;59.29;99688.16;5114474;28;20433;-73
2021/07/20 07:21:58;;;;;;;21.43;15.60;;;;;;;20.61;61.31;99689.59;5114652;28;20820;-74
2021/07/20 07:24:26;;;;;;;20.70;14.57;;;;;;;21.00;60.59;99692.09;5114463;28;20425;-73
2021/07/20 07:26:54;;;;;;;23.07;15.07;;;;;;;20.90;60.98;99690.47;5114283;28;20476;-74
2021/07/20 07:29:23;;;;;;;25.50;14.67;;;;;;;21.16;59.03;99691.41;5114289;28;20441;-74
2021/07/20 07:31:50;;;;;;;19.30;15.07;;;;;;;21.36;58.03;99699.50;5113669;28;20970;-74
2021/07/20 07:34:17;;;;;;;20.30;15.10;;;;;;;21.47;58.68;99690.22;5114048;28;20842;-74
2021/07/20 07:36:46;;;;;;;18.10;14.67;;;;;;;21.97;57.42;99695.09;5114251;28;20515;-73
2021/07/20 07:39:16;;;;;;;20.07;14.97;;;;;;;22.08;56.90;99692.09;5114333;28;20422;-74
2021/07/20 07:41:45;;;;;;;17.47;14.63;;;;;;;22.27;55.85;99691.91;5114191;28;20905;-73
2021/07/20 07:44:15;;;;;;;23.40;14.80;;;;;;;22.21;55.68;99695.28;5114428;28;20425;-73
2021/07/20 07:46:44;;;;;;;22.90;15.17;;;;;;;22.30;54.86;99706.34;5113817;28;20478;-74
2021/07/20 07:49:12;;;;;;;17.50;14.27;;;;;;;22.09;55.38;99702.03;5113596;28;20524;-75
2021/07/20 07:51:40;;;;;;;19.43;15.70;;;;;;;21.92;55.52;99703.78;5113810;28;20516;-73
2021/07/20 07:54:08;;;;;;;19.20;15.40;;;;;;;22.27;55.20;99700.13;5113966;28;20457;-75
2021/07/20 07:56:37;;;;;;;18.80;14.83;;;;;;;22.03;54.71;99702.69;5115157;28;20469;-74
2021/07/20 07:59:05;;;;;;;19.40;14.77;;;;;;;21.87;53.42;99703.41;5113643;28;20435;-74
2021/07/20 08:01:33;;;;;;;20.27;14.87;;;;;;;22.10;53.77;99700.16;5113204;28;20552;-73
2021/07/20 08:04:02;;;;;;;16.53;14.03;;;;;;;22.39;52.63;99700.72;5112764;28;20557;-74
2021/07/20 08:06:31;;;;;;;23.83;16.67;;;;;;;22.48;51.56;99698.88;5113300;28;20441;-74
2021/07/20 08:09:01;;;;;;;23.03;15.30;;;;;;;22.67;49.40;99703.25;5113169;28;20514;-74
2021/07/20 08:11:29;;;;;;;22.20;15.40;;;;;;;23.29;48.67;99701.09;5113826;28;20891;-73
2021/07/20 08:14:00;;;;;;;19.63;14.93;;;;;;;22.60;49.84;99696.72;5113218;28;20441;-74
2021/07/20 08:16:29;;;;;;;18.87;14.50;;;;;;;22.63;48.94;99702.72;5113999;28;20959;-74
2021/07/20 08:18:57;;;;;;;19.87;14.30;;;;;;;23.15;47.07;99693.47;5113232;28;20445;-73
2021/07/20 08:21:27;;;;;;;19.50;14.27;;;;;;;22.77;48.34;99706.75;5113548;28;20780;-73
2021/07/20 08:23:55;;;;;;;19.70;14.63;;;;;;;23.37;47.87;99700.22;5113663;28;20478;-73
2021/07/20 08:26:25;;;;;;;19.50;13.80;;;;;;;23.66;46.86;99701.66;5113243;28;20493;-72
2021/07/20 08:28:56;;;;;;;21.20;14.50;;;;;;;23.64;47.74;99703.72;5113985;28;20493;-73
2021/07/20 08:31:25;;;;;;;16.50;13.27;;;;;;;23.83;47.31;99705.28;5113537;28;20428;-74
2021/07/20 08:33:57;;;;;;;17.60;13.50;;;;;;;23.51;48.07;99698.69;5114623;28;20792;-74
2021/07/20 08:36:27;;;;;;;18.87;14.27;;;;;;;23.64;47.01;99696.31;5120845;28;20523;-75
2021/07/20 08:38:56;;;;;;;18.60;13.60;;;;;;;23.38;47.54;99692.84;5123249;28;20494;-73
2021/07/20 08:41:41;;;;;;;18.77;13.70;;;;;;;23.50;45.95;99692.34;5113617;28;20487;-75
2021/07/20 08:44:24;;;;;;;15.93;12.43;;;;;;;23.46;45.15;99687.38;5113708;28;20750;-74
2021/07/20 08:47:02;;;;;;;19.03;13.10;;;;;;;23.45;45.21;99680.13;5113654;28;20528;-74
2021/07/20 08:49:45;;;;;;;15.03;12.13;;;;;;;23.07;45.97;99685.25;5107698;28;20561;-75
2021/07/20 08:52:18;;;;;;;16.23;13.17;;;;;;;23.16;45.37;99691.63;5113565;28;20433;-74
2021/07/20 08:54:57;;;;;;;19.67;13.57;;;;;;;23.26;45.81;99697.81;5113534;28;20449;-75
2021/07/20 08:57:29;;;;;;;15.67;12.23;;;;;;;23.69;45.29;99690.28;5113123;28;20960;-74
2021/07/20 09:00:02;;;;;;;14.97;12.17;;;;;;;23.45;45.35;99696.63;5113061;28;20437;-74
2021/07/20 09:02:40;;;;;;;17.20;12.83;;;;;;;23.51;44.75;99683.06;5113427;28;20575;-74
2021/07/20 09:05:16;;;;;;;15.40;13.07;;;;;;;23.28;45.25;99693.84;5113465;28;20520;-75
2021/07/20 09:07:53;;;;;;;15.70;12.50;;;;;;;23.63;45.23;99693.72;5113609;28;20521;-75
2021/07/20 09:10:21;;;;;;;19.47;13.57;;;;;;;23.87;45.33;99682.75;5113455;28;20519;-74
2021/07/20 09:12:50;;;;;;;16.60;12.47;;;;;;;23.53;45.75;99681.00;5113095;28;20426;-74
2021/07/20 09:15:20;;;;;;;17.87;13.40;;;;;;;23.43;45.80;99684.97;5112507;28;20435;-74
2021/07/20 09:17:53;;;;;;;17.67;14.10;;;;;;;23.40;45.35;99688.91;5113829;28;20906;-74
2021/07/20 09:20:24;;;;;;;15.53;12.63;;;;;;;23.53;44.59;99675.50;5114110;28;20426;-74
2021/07/20 09:22:55;;;;;;;15.03;12.03;;;;;;;23.39;45.59;99687.19;5115608;28;20472;-74
2021/07/20 09:25:26;;;;;;;16.40;12.60;;;;;;;23.70;45.20;99686.53;5092797;28;20421;-74
2021/07/20 09:28:01;;;;;;;20.77;13.37;;;;;;;23.78;45.85;99692.03;5096555;28;20505;-73
2021/07/20 09:30:30;;;;;;;15.60;12.77;;;;;;;23.80;45.87;99687.25;5096844;28;20420;-75
2021/07/20 09:33:14;;;;;;;17.90;13.80;;;;;;;23.67;46.16;99684.97;5100580;28;20511;-73
2021/07/20 09:35:46;;;;;;;16.40;13.33;;;;;;;23.84;45.45;99685.88;5116858;28;20435;-74
2021/07/20 09:38:27;;;;;;;16.77;12.77;;;;;;;24.21;44.50;99681.69;5115935;28;20469;-74
2021/07/20 09:41:03;;;;;;;17.57;13.27;;;;;;;23.82;45.19;99682.44;5117477;28;20420;-76
2021/07/20 09:43:49;;;;;;;17.17;13.10;;;;;;;23.82;44.59;99679.69;5117531;28;20508;-75
2021/07/20 09:46:20;;;;;;;20.93;13.60;;;;;;;24.20;44.23;99677.22;5117253;28;20439;-75
2021/07/20 09:48:54;;;;;;;13.50;12.07;;;;;;;23.82;42.64;99678.81;5113016;28;20925;-75
2021/07/20 09:52:03;;;;;;;16.53;12.67;;;;;;;23.64;42.42;99678.97;5118466;28;20443;-75
2021/07/20 09:54:43;;;;;;;15.27;11.73;;;;;;;24.07;42.16;99672.25;5117180;28;20444;-76
2021/07/20 09:57:19;;;;;;;18.67;13.00;;;;;;;24.27;43.03;99680.13;5118213;28;20518;-75
2021/07/20 09:59:59;;;;;;;14.47;11.50;;;;;;;24.43;41.83;99676.47;5116989;28;20940;-75
2021/07/20 10:02:34;;;;;;;14.43;11.60;;;;;;;24.49;40.66;99684.91;5117589;28;20545;-75
2021/07/20 10:05:06;;;;;;;14.63;10.93;;;;;;;24.56;40.25;99674.06;5116494;28;20432;-75
2021/07/20 10:07:39;;;;;;;14.57;12.83;;;;;;;24.29;40.79;99681.66;5120606;28;20532;-75
2021/07/20 10:10:12;;;;;;;14.07;11.07;;;;;;;24.13;41.18;99676.22;5117152;28;20462;-76
2021/07/20 10:12:51;;;;;;;14.63;11.60;;;;;;;24.12;41.54;99669.84;5096716;28;20430;-76
2021/07/20 10:15:23;;;;;;;14.40;11.67;;;;;;;24.43;40.31;99671.81;5115790;28;20894;-75
2021/07/20 10:17:52;;;;;;;15.23;10.60;;;;;;;24.49;39.77;99667.53;5118453;28;20438;-76
2021/07/20 10:20:22;;;;;;;13.20;11.20;;;;;;;24.44;40.15;99668.03;5117506;28;20425;-76
2021/07/20 10:22:55;;;;;;;15.73;11.90;;;;;;;24.83;39.97;99660.84;5116650;28;20858;-75
2021/07/20 10:25:26;;;;;;;14.37;11.67;;;;;;;24.86;39.76;99666.88;5116926;28;20448;-76
2021/07/20 10:27:57;;;;;;;12.63;9.83;;;;;;;24.66;39.04;99657.31;5117486;28;20421;-75
2021/07/20 10:30:26;;;;;;;14.30;11.63;;;;;;;24.67;40.50;99659.91;5116133;28;20874;-75
2021/07/20 10:33:03;;;;;;;13.80;11.10;;;;;;;24.48;41.14;99658.41;5117769;28;20527;-75
2021/07/20 10:35:40;;;;;;;17.67;11.00;;;;;;;24.56;41.38;99654.78;5114669;28;20444;-74
2021/07/20 10:38:11;;;;;;;14.90;10.80;;;;;;;24.28;41.65;99657.94;5095183;28;20465;-75
2021/07/20 10:40:39;;;;;;;12.80;10.57;;;;;;;24.48;41.13;99661.16;5103061;28;20437;-75
2021/07/20 10:43:13;;;;;;;15.90;11.50;;;;;;;24.44;41.57;99661.66;5117560;27;20468;-74
2021/07/20 10:45:42;;;;;;;13.80;10.80;;;;;;;24.24;41.21;99650.19;5135320;27;21299;-75
2021/07/20 10:48:14;;;;;;;13.83;10.50;;;;;;;24.03;41.40;99650.78;5122435;27;20424;-75
2021/07/20 10:50:54;;;;;;;13.40;11.27;;;;;;;24.47;41.10;99658.59;5136575;27;20420;-76
2021/07/20 10:53:35;;;;;;;14.70;12.17;;;;;;;24.14;42.31;99659.50;5125746;27;20428;-76
2021/07/20 10:56:17;;;;;;;12.43;10.60;;;;;;;24.64;41.69;99656.63;5117488;28;20890;-75
2021/07/20 10:58:53;;;;;;;14.13;11.17;;;;;;;24.46;41.52;99660.44;5118685;28;20479;-75
2021/07/20 11:01:22;;;;;;;13.30;10.80;;;;;;;24.74;40.42;99652.66;5117286;28;20433;-75
2021/07/20 11:04:00;;;;;;;12.33;10.50;;;;;;;25.12;39.92;99652.78;5117127;28;20529;-77
2021/07/20 11:06:29;;;;;;;14.60;10.10;;;;;;;24.81;39.86;99643.66;5119375;28;20900;-75
2021/07/20 11:09:01;;;;;;;15.33;11.93;;;;;;;24.85;39.83;99636.75;5117082;28;20436;-74
2021/07/20 11:11:33;;;;;;;15.30;11.00;;;;;;;24.89;39.93;99646.38;5115760;28;20511;-75
2021/07/20 11:14:01;;;;;;;13.40;11.37;;;;;;;24.91;40.44;99639.63;5115683;28;20425;-75
2021/07/20 11:16:32;;;;;;;12.37;11.07;;;;;;;25.07;39.22;99646.94;5114702;28;20433;-74
2021/07/20 11:19:03;;;;;;;13.83;10.00;;;;;;;25.18;39.27;99638.28;5114767;28;20461;-73
2021/07/20 11:21:32;;;;;;;13.60;10.27;;;;;;;25.40;39.73;99632.13;5113339;28;20441;-75
2021/07/20 11:23:59;;;;;;;14.00;11.77;;;;;;;25.52;40.26;99630.63;5113553;28;20433;-74
2021/07/20 11:26:29;;;;;;;13.80;10.47;;;;;;;25.45;39.66;99633.28;5114244;28;20449;-75
2021/07/20 11:28:57;;;;;;;13.30;10.63;;;;;;;25.41;40.43;99633.81;5114304;28;20874;-75
2021/07/20 11:31:27;;;;;;;14.00;10.90;;;;;;;24.94;40.22;99635.66;5113520;28;20930;-74